sensor_id;sensor_type;location;lat;lon;timestamp;noise_LAeq;noise_LA_min;noise_LA_max;noise_LA01;noise_LA95
69620;Laerm;57654;51.434;5.984;2023-09-19T00:00:01;34.94;32.23;37.60;;
69620;Laerm;57654;51.434;5.984;2023-09-19T00:00:11;35.05;33.10;37.38;;
69620;Laerm;57654;51.434;5.984;2023-09-19T00:00:23;35.42;33.93;37.36;;
69620;Laerm;57654;51.434;5.984;2023-09-19T00:00:34;34.67;32.69;38.37;;
69620;Laerm;57654;51.434;5.984;2023-09-19T00:00:46;36.81;33.02;44.03;;
69620;Laerm;57654;51.434;5.984;2023-09-19T00:00:59;36.86;32.03;43.27;;
69620;Laerm;57654;51.434;5.984;2023-09-19T00:01:09;32.81;30.99;39.15;;
69620;Laerm;57654;51.434;5.984;2023-09-19T00:01:22;32.29;30.43;34.87;;
69620;Laerm;57654;51.434;5.984;2023-09-19T00:01:32;31.70;30.02;36.16;;
69620;Laerm;57654;51.434;5.984;2023-09-19T00:01:43;32.95;30.68;36.08;;
69620;Laerm;57654;51.434;5.984;2023-09-19T00:01:55;33.94;31.36;37.46;;
69620;Laerm;57654;51.434;5.984;2023-09-19T00:02:07;33.14;31.17;36.99;;
69620;Laerm;57654;51.434;5.984;2023-09-19T00:02:18;32.27;30.50;35.21;;
69620;Laerm;57654;51.434;5.984;2023-09-19T00:02:29;32.07;30.38;34.61;;
69620;Laerm;57654;51.434;5.984;2023-09-19T00:02:39;31.78;30.09;34.41;;
69620;Laerm;57654;51.434;5.984;2023-09-19T00:02:56;31.99;30.30;34.99;;
69620;Laerm;57654;51.434;5.984;2023-09-19T00:03:09;32.81;30.60;37.54;;
69620;Laerm;57654;51.434;5.984;2023-09-19T00:03:20;34.14;31.77;36.88;;
69620;Laerm;57654;51.434;5.984;2023-09-19T00:03:30;34.33;32.08;37.70;;
69620;Laerm;57654;51.434;5.984;2023-09-19T00:03:41;36.96;33.98;40.42;;
69620;Laerm;57654;51.434;5.984;2023-09-19T00:03:51;46.66;38.32;50.84;;
69620;Laerm;57654;51.434;5.984;2023-09-19T00:04:03;49.84;46.68;51.81;;
69620;Laerm;57654;51.434;5.984;2023-09-19T00:04:13;44.76;35.46;49.09;;
69620;Laerm;57654;51.434;5.984;2023-09-19T00:04:24;33.55;31.54;37.36;;
69620;Laerm;57654;51.434;5.984;2023-09-19T00:04:38;33.62;31.61;36.78;;
69620;Laerm;57654;51.434;5.984;2023-09-19T00:04:49;34.77;32.94;38.89;;
69620;Laerm;57654;51.434;5.984;2023-09-19T00:05:00;33.47;31.76;36.53;;
69620;Laerm;57654;51.434;5.984;2023-09-19T00:05:14;33.51;31.54;36.27;;
69620;Laerm;57654;51.434;5.984;2023-09-19T00:05:25;32.31;30.61;38.06;;
69620;Laerm;57654;51.434;5.984;2023-09-19T00:05:37;33.03;31.44;37.15;;
69620;Laerm;57654;51.434;5.984;2023-09-19T00:05:48;31.99;30.23;34.90;;
69620;Laerm;57654;51.434;5.984;2023-09-19T00:06:00;33.59;30.81;36.77;;
69620;Laerm;57654;51.434;5.984;2023-09-19T00:06:11;38.05;35.72;40.96;;
69620;Laerm;57654;51.434;5.984;2023-09-19T00:06:23;35.59;32.08;39.60;;
69620;Laerm;57654;51.434;5.984;2023-09-19T00:06:36;33.21;31.33;35.65;;
69620;Laerm;57654;51.434;5.984;2023-09-19T00:06:46;33.01;31.17;35.86;;
69620;Laerm;57654;51.434;5.984;2023-09-19T00:06:57;32.97;31.32;35.60;;
69620;Laerm;57654;51.434;5.984;2023-09-19T00:07:07;32.17;30.76;34.80;;
69620;Laerm;57654;51.434;5.984;2023-09-19T00:07:19;32.42;30.65;36.48;;
69620;Laerm;57654;51.434;5.984;2023-09-19T00:07:29;34.28;32.01;37.36;;
69620;Laerm;57654;51.434;5.984;2023-09-19T00:07:39;34.58;31.19;40.36;;
69620;Laerm;57654;51.434;5.984;2023-09-19T00:07:51;32.42;30.66;36.19;;
69620;Laerm;57654;51.434;5.984;2023-09-19T00:08:04;32.67;31.08;36.84;;
69620;Laerm;57654;51.434;5.984;2023-09-19T00:08:15;33.11;30.55;36.26;;
69620;Laerm;57654;51.434;5.984;2023-09-19T00:08:25;36.13;33.65;38.26;;
69620;Laerm;57654;51.434;5.984;2023-09-19T00:08:37;36.62;33.74;39.79;;
69620;Laerm;57654;51.434;5.984;2023-09-19T00:08:47;33.60;31.42;36.06;;
69620;Laerm;57654;51.434;5.984;2023-09-19T00:08:58;32.30;30.45;35.81;;
69620;Laerm;57654;51.434;5.984;2023-09-19T00:09:11;33.30;31.55;35.97;;
69620;Laerm;57654;51.434;5.984;2023-09-19T00:09:21;33.63;32.03;35.56;;
69620;Laerm;57654;51.434;5.984;2023-09-19T00:09:31;33.47;31.82;37.60;;
69620;Laerm;57654;51.434;5.984;2023-09-19T00:09:47;33.67;30.67;40.05;;
69620;Laerm;57654;51.434;5.984;2023-09-19T00:09:57;33.09;31.13;37.20;;
69620;Laerm;57654;51.434;5.984;2023-09-19T00:10:07;34.21;31.67;43.30;;
69620;Laerm;57654;51.434;5.984;2023-09-19T00:10:22;34.26;32.51;37.43;;
69620;Laerm;57654;51.434;5.984;2023-09-19T00:10:34;35.07;32.53;37.24;;
69620;Laerm;57654;51.434;5.984;2023-09-19T00:10:48;33.69;31.11;36.73;;
69620;Laerm;57654;51.434;5.984;2023-09-19T00:10:58;36.26;32.02;40.92;;
69620;Laerm;57654;51.434;5.984;2023-09-19T00:11:15;47.38;39.74;50.58;;
69620;Laerm;57654;51.434;5.984;2023-09-19T00:11:26;47.33;44.34;49.95;;
69620;Laerm;57654;51.434;5.984;2023-09-19T00:11:37;38.82;31.37;45.11;;
69620;Laerm;57654;51.434;5.984;2023-09-19T00:11:49;33.60;31.03;36.70;;
69620;Laerm;57654;51.434;5.984;2023-09-19T00:11:59;33.70;32.11;36.81;;
69620;Laerm;57654;51.434;5.984;2023-09-19T00:12:10;34.91;32.70;38.42;;
69620;Laerm;57654;51.434;5.984;2023-09-19T00:12:20;34.12;32.07;37.51;;
69620;Laerm;57654;51.434;5.984;2023-09-19T00:12:30;35.15;31.64;38.25;;
69620;Laerm;57654;51.434;5.984;2023-09-19T00:12:43;32.77;31.46;34.59;;
69620;Laerm;57654;51.434;5.984;2023-09-19T00:12:53;34.83;33.06;37.84;;
69620;Laerm;57654;51.434;5.984;2023-09-19T00:13:09;33.20;30.73;35.03;;
69620;Laerm;57654;51.434;5.984;2023-09-19T00:13:22;32.17;30.07;38.12;;
69620;Laerm;57654;51.434;5.984;2023-09-19T00:13:34;33.14;31.40;36.31;;
69620;Laerm;57654;51.434;5.984;2023-09-19T00:13:49;33.44;32.16;38.27;;
69620;Laerm;57654;51.434;5.984;2023-09-19T00:14:00;32.37;30.43;35.64;;
69620;Laerm;57654;51.434;5.984;2023-09-19T00:14:10;32.22;30.53;36.07;;
69620;Laerm;57654;51.434;5.984;2023-09-19T00:14:24;31.97;30.42;36.05;;
69620;Laerm;57654;51.434;5.984;2023-09-19T00:14:35;32.63;31.21;35.33;;
69620;Laerm;57654;51.434;5.984;2023-09-19T00:14:45;32.42;31.12;34.27;;
69620;Laerm;57654;51.434;5.984;2023-09-19T00:14:56;32.31;30.83;37.03;;
69620;Laerm;57654;51.434;5.984;2023-09-19T00:15:07;35.91;31.33;39.26;;
69620;Laerm;57654;51.434;5.984;2023-09-19T00:15:17;33.45;30.55;43.65;;
69620;Laerm;57654;51.434;5.984;2023-09-19T00:15:28;32.10;30.17;34.54;;
69620;Laerm;57654;51.434;5.984;2023-09-19T00:15:39;33.74;30.30;37.27;;
69620;Laerm;57654;51.434;5.984;2023-09-19T00:15:50;33.97;32.17;38.19;;
69620;Laerm;57654;51.434;5.984;2023-09-19T00:16:00;34.38;31.65;36.61;;
69620;Laerm;57654;51.434;5.984;2023-09-19T00:16:11;32.64;31.34;34.94;;
69620;Laerm;57654;51.434;5.984;2023-09-19T00:16:22;32.02;30.18;35.18;;
69620;Laerm;57654;51.434;5.984;2023-09-19T00:16:33;32.41;30.96;34.82;;
69620;Laerm;57654;51.434;5.984;2023-09-19T00:16:43;32.39;31.07;34.29;;
69620;Laerm;57654;51.434;5.984;2023-09-19T00:16:54;33.57;31.01;38.92;;
69620;Laerm;57654;51.434;5.984;2023-09-19T00:17:04;35.85;32.19;39.86;;
69620;Laerm;57654;51.434;5.984;2023-09-19T00:17:19;32.51;30.56;38.08;;
69620;Laerm;57654;51.434;5.984;2023-09-19T00:17:29;31.97;30.62;34.13;;
69620;Laerm;57654;51.434;5.984;2023-09-19T00:17:41;32.38;30.53;34.84;;
69620;Laerm;57654;51.434;5.984;2023-09-19T00:17:53;33.43;31.12;36.13;;
69620;Laerm;57654;51.434;5.984;2023-09-19T00:18:04;34.94;32.10;37.71;;
69620;Laerm;57654;51.434;5.984;2023-09-19T00:18:19;33.94;31.70;36.65;;
69620;Laerm;57654;51.434;5.984;2023-09-19T00:18:34;33.92;31.67;38.15;;
69620;Laerm;57654;51.434;5.984;2023-09-19T00:18:45;32.12;30.44;34.97;;
69620;Laerm;57654;51.434;5.984;2023-09-19T00:18:56;32.75;30.95;47.80;;
69620;Laerm;57654;51.434;5.984;2023-09-19T00:19:06;33.16;31.41;37.09;;
69620;Laerm;57654;51.434;5.984;2023-09-19T00:19:17;32.85;31.14;34.61;;
69620;Laerm;57654;51.434;5.984;2023-09-19T00:19:27;33.22;31.71;36.17;;
69620;Laerm;57654;51.434;5.984;2023-09-19T00:19:39;33.61;32.17;35.66;;
69620;Laerm;57654;51.434;5.984;2023-09-19T00:19:52;42.40;30.96;64.37;;
69620;Laerm;57654;51.434;5.984;2023-09-19T00:20:03;33.84;31.41;36.39;;
69620;Laerm;57654;51.434;5.984;2023-09-19T00:20:17;33.58;31.14;36.37;;
69620;Laerm;57654;51.434;5.984;2023-09-19T00:20:28;34.82;32.79;37.73;;
69620;Laerm;57654;51.434;5.984;2023-09-19T00:20:39;39.79;34.39;45.12;;
69620;Laerm;57654;51.434;5.984;2023-09-19T00:20:52;50.26;43.59;53.59;;
69620;Laerm;57654;51.434;5.984;2023-09-19T00:21:03;51.39;46.96;54.07;;
69620;Laerm;57654;51.434;5.984;2023-09-19T00:21:15;42.94;30.27;49.62;;
69620;Laerm;57654;51.434;5.984;2023-09-19T00:21:25;32.25;30.64;36.88;;
69620;Laerm;57654;51.434;5.984;2023-09-19T00:21:36;31.48;30.21;35.05;;
69620;Laerm;57654;51.434;5.984;2023-09-19T00:21:47;32.99;30.36;35.75;;
69620;Laerm;57654;51.434;5.984;2023-09-19T00:21:58;32.95;30.90;36.38;;
69620;Laerm;57654;51.434;5.984;2023-09-19T00:22:08;33.41;31.40;36.12;;
69620;Laerm;57654;51.434;5.984;2023-09-19T00:22:18;33.89;32.36;35.46;;
69620;Laerm;57654;51.434;5.984;2023-09-19T00:22:28;34.11;32.24;35.83;;
69620;Laerm;57654;51.434;5.984;2023-09-19T00:22:39;33.42;31.03;39.30;;
69620;Laerm;57654;51.434;5.984;2023-09-19T00:22:50;31.87;30.05;35.58;;
69620;Laerm;57654;51.434;5.984;2023-09-19T00:23:03;31.78;29.94;36.38;;
69620;Laerm;57654;51.434;5.984;2023-09-19T00:23:14;31.83;30.12;35.62;;
69620;Laerm;57654;51.434;5.984;2023-09-19T00:23:25;31.91;30.28;37.60;;
69620;Laerm;57654;51.434;5.984;2023-09-19T00:23:35;31.76;29.96;34.52;;
69620;Laerm;57654;51.434;5.984;2023-09-19T00:23:45;32.48;30.56;35.47;;
69620;Laerm;57654;51.434;5.984;2023-09-19T00:23:55;32.49;30.42;41.92;;
69620;Laerm;57654;51.434;5.984;2023-09-19T00:24:06;35.36;33.22;38.06;;
69620;Laerm;57654;51.434;5.984;2023-09-19T00:24:16;36.97;34.71;40.00;;
69620;Laerm;57654;51.434;5.984;2023-09-19T00:24:27;34.22;32.21;36.69;;
69620;Laerm;57654;51.434;5.984;2023-09-19T00:24:38;34.62;32.67;37.62;;
69620;Laerm;57654;51.434;5.984;2023-09-19T00:24:48;35.97;33.32;39.18;;
69620;Laerm;57654;51.434;5.984;2023-09-19T00:24:58;34.83;32.34;39.63;;
69620;Laerm;57654;51.434;5.984;2023-09-19T00:25:10;32.87;31.07;38.46;;
69620;Laerm;57654;51.434;5.984;2023-09-19T00:25:21;34.13;31.57;36.86;;
69620;Laerm;57654;51.434;5.984;2023-09-19T00:25:32;38.89;34.97;41.49;;
69620;Laerm;57654;51.434;5.984;2023-09-19T00:25:42;39.12;34.42;42.79;;
69620;Laerm;57654;51.434;5.984;2023-09-19T00:25:52;36.20;31.90;39.09;;
69620;Laerm;57654;51.434;5.984;2023-09-19T00:26:07;32.08;30.33;35.17;;
69620;Laerm;57654;51.434;5.984;2023-09-19T00:26:17;33.49;30.56;37.18;;
69620;Laerm;57654;51.434;5.984;2023-09-19T00:26:28;32.28;29.99;36.53;;
69620;Laerm;57654;51.434;5.984;2023-09-19T00:26:40;31.67;30.41;33.85;;
69620;Laerm;57654;51.434;5.984;2023-09-19T00:26:51;32.12;29.78;36.10;;
69620;Laerm;57654;51.434;5.984;2023-09-19T00:27:01;31.77;29.96;36.70;;
69620;Laerm;57654;51.434;5.984;2023-09-19T00:27:11;31.77;30.24;34.26;;
69620;Laerm;57654;51.434;5.984;2023-09-19T00:27:21;33.68;32.20;35.92;;
69620;Laerm;57654;51.434;5.984;2023-09-19T00:27:32;34.01;31.96;37.26;;
69620;Laerm;57654;51.434;5.984;2023-09-19T00:27:43;32.95;31.46;35.60;;
69620;Laerm;57654;51.434;5.984;2023-09-19T00:27:55;33.16;31.12;35.98;;
69620;Laerm;57654;51.434;5.984;2023-09-19T00:28:05;32.62;31.13;36.19;;
69620;Laerm;57654;51.434;5.984;2023-09-19T00:28:17;32.40;30.42;34.96;;
69620;Laerm;57654;51.434;5.984;2023-09-19T00:28:28;31.94;30.18;34.43;;
69620;Laerm;57654;51.434;5.984;2023-09-19T00:28:41;32.29;30.32;35.26;;
69620;Laerm;57654;51.434;5.984;2023-09-19T00:28:52;31.65;30.27;35.21;;
69620;Laerm;57654;51.434;5.984;2023-09-19T00:29:02;31.65;30.07;33.97;;
69620;Laerm;57654;51.434;5.984;2023-09-19T00:29:13;32.58;30.53;35.54;;
69620;Laerm;57654;51.434;5.984;2023-09-19T00:29:26;32.70;30.70;36.04;;
69620;Laerm;57654;51.434;5.984;2023-09-19T00:29:39;35.29;32.10;41.23;;
69620;Laerm;57654;51.434;5.984;2023-09-19T00:29:49;36.20;32.84;40.81;;
69620;Laerm;57654;51.434;5.984;2023-09-19T00:29:59;33.74;32.15;35.94;;
69620;Laerm;57654;51.434;5.984;2023-09-19T00:30:11;34.99;32.73;37.55;;
69620;Laerm;57654;51.434;5.984;2023-09-19T00:30:25;35.99;33.11;40.34;;
69620;Laerm;57654;51.434;5.984;2023-09-19T00:30:36;32.80;30.32;36.06;;
69620;Laerm;57654;51.434;5.984;2023-09-19T00:30:48;32.79;30.70;36.21;;
69620;Laerm;57654;51.434;5.984;2023-09-19T00:31:02;33.67;31.80;37.06;;
69620;Laerm;57654;51.434;5.984;2023-09-19T00:31:12;34.30;31.57;38.60;;
69620;Laerm;57654;51.434;5.984;2023-09-19T00:31:22;33.77;31.44;37.08;;
69620;Laerm;57654;51.434;5.984;2023-09-19T00:31:33;33.55;31.08;35.79;;
69620;Laerm;57654;51.434;5.984;2023-09-19T00:31:43;35.14;32.57;38.36;;
69620;Laerm;57654;51.434;5.984;2023-09-19T00:31:54;35.75;33.14;38.55;;
69620;Laerm;57654;51.434;5.984;2023-09-19T00:32:06;36.70;34.59;39.70;;
69620;Laerm;57654;51.434;5.984;2023-09-19T00:32:16;38.08;33.78;41.52;;
69620;Laerm;57654;51.434;5.984;2023-09-19T00:32:27;34.83;32.34;37.45;;
69620;Laerm;57654;51.434;5.984;2023-09-19T00:32:42;32.87;31.27;37.77;;
69620;Laerm;57654;51.434;5.984;2023-09-19T00:32:52;35.02;32.70;37.76;;
69620;Laerm;57654;51.434;5.984;2023-09-19T00:33:03;32.81;31.15;35.32;;
69620;Laerm;57654;51.434;5.984;2023-09-19T00:33:16;32.55;30.90;36.64;;
69620;Laerm;57654;51.434;5.984;2023-09-19T00:33:26;31.49;29.88;34.28;;
69620;Laerm;57654;51.434;5.984;2023-09-19T00:33:36;31.23;29.69;33.87;;
69620;Laerm;57654;51.434;5.984;2023-09-19T00:33:47;31.43;29.44;35.42;;
69620;Laerm;57654;51.434;5.984;2023-09-19T00:33:58;32.55;30.67;36.50;;
69620;Laerm;57654;51.434;5.984;2023-09-19T00:34:10;31.69;30.17;36.50;;
69620;Laerm;57654;51.434;5.984;2023-09-19T00:34:20;31.52;30.05;33.91;;
69620;Laerm;57654;51.434;5.984;2023-09-19T00:34:31;33.50;30.53;39.70;;
69620;Laerm;57654;51.434;5.984;2023-09-19T00:34:44;35.10;30.91;40.22;;
69620;Laerm;57654;51.434;5.984;2023-09-19T00:34:54;31.86;30.30;36.51;;
69620;Laerm;57654;51.434;5.984;2023-09-19T00:35:05;33.03;30.15;36.37;;
69620;Laerm;57654;51.434;5.984;2023-09-19T00:35:15;31.51;29.93;34.06;;
69620;Laerm;57654;51.434;5.984;2023-09-19T00:35:25;31.95;30.24;39.28;;
69620;Laerm;57654;51.434;5.984;2023-09-19T00:35:36;32.44;30.19;35.83;;
69620;Laerm;57654;51.434;5.984;2023-09-19T00:35:49;31.95;29.90;36.92;;
69620;Laerm;57654;51.434;5.984;2023-09-19T00:36:00;31.60;29.79;35.83;;
69620;Laerm;57654;51.434;5.984;2023-09-19T00:36:14;32.63;30.92;35.01;;
69620;Laerm;57654;51.434;5.984;2023-09-19T00:36:24;33.24;31.80;35.67;;
69620;Laerm;57654;51.434;5.984;2023-09-19T00:36:34;35.51;32.55;38.65;;
69620;Laerm;57654;51.434;5.984;2023-09-19T00:36:45;34.86;32.43;37.43;;
69620;Laerm;57654;51.434;5.984;2023-09-19T00:36:55;34.72;32.89;40.07;;
69620;Laerm;57654;51.434;5.984;2023-09-19T00:37:05;35.77;32.53;37.84;;
69620;Laerm;57654;51.434;5.984;2023-09-19T00:37:16;36.20;33.06;38.62;;
69620;Laerm;57654;51.434;5.984;2023-09-19T00:37:28;33.23;31.49;39.85;;
69620;Laerm;57654;51.434;5.984;2023-09-19T00:37:38;33.89;32.05;36.46;;
69620;Laerm;57654;51.434;5.984;2023-09-19T00:37:50;33.20;31.22;35.62;;
69620;Laerm;57654;51.434;5.984;2023-09-19T00:38:00;32.05;30.70;34.52;;
69620;Laerm;57654;51.434;5.984;2023-09-19T00:38:10;32.36;30.89;36.20;;
69620;Laerm;57654;51.434;5.984;2023-09-19T00:38:22;33.42;31.09;43.22;;
69620;Laerm;57654;51.434;5.984;2023-09-19T00:38:36;34.96;32.07;37.86;;
69620;Laerm;57654;51.434;5.984;2023-09-19T00:38:46;34.09;30.82;37.95;;
69620;Laerm;57654;51.434;5.984;2023-09-19T00:38:57;33.06;31.19;35.84;;
69620;Laerm;57654;51.434;5.984;2023-09-19T00:39:07;32.98;31.30;34.83;;
69620;Laerm;57654;51.434;5.984;2023-09-19T00:39:18;32.65;30.72;35.54;;
69620;Laerm;57654;51.434;5.984;2023-09-19T00:39:30;31.97;30.28;36.38;;
69620;Laerm;57654;51.434;5.984;2023-09-19T00:39:41;34.86;32.00;38.24;;
69620;Laerm;57654;51.434;5.984;2023-09-19T00:39:51;32.19;30.84;34.49;;
69620;Laerm;57654;51.434;5.984;2023-09-19T00:40:03;32.35;30.63;38.36;;
69620;Laerm;57654;51.434;5.984;2023-09-19T00:40:15;32.79;30.66;35.85;;
69620;Laerm;57654;51.434;5.984;2023-09-19T00:40:26;32.41;31.07;36.23;;
69620;Laerm;57654;51.434;5.984;2023-09-19T00:40:37;32.97;31.51;35.70;;
69620;Laerm;57654;51.434;5.984;2023-09-19T00:40:47;33.50;31.34;36.24;;
69620;Laerm;57654;51.434;5.984;2023-09-19T00:40:58;32.46;30.83;36.35;;
69620;Laerm;57654;51.434;5.984;2023-09-19T00:41:11;33.18;30.05;44.88;;
69620;Laerm;57654;51.434;5.984;2023-09-19T00:41:22;31.89;30.04;36.51;;
69620;Laerm;57654;51.434;5.984;2023-09-19T00:41:34;31.83;30.26;36.06;;
69620;Laerm;57654;51.434;5.984;2023-09-19T00:41:48;31.80;29.99;35.99;;
69620;Laerm;57654;51.434;5.984;2023-09-19T00:41:58;32.54;30.77;35.04;;
69620;Laerm;57654;51.434;5.984;2023-09-19T00:42:18;32.22;30.60;37.97;;
69620;Laerm;57654;51.434;5.984;2023-09-19T00:42:29;32.06;30.28;36.81;;
69620;Laerm;57654;51.434;5.984;2023-09-19T00:42:39;32.10;30.21;34.39;;
69620;Laerm;57654;51.434;5.984;2023-09-19T00:42:50;31.74;30.00;34.52;;
69620;Laerm;57654;51.434;5.984;2023-09-19T00:43:01;31.94;29.85;35.76;;
69620;Laerm;57654;51.434;5.984;2023-09-19T00:43:11;31.90;30.43;35.21;;
69620;Laerm;57654;51.434;5.984;2023-09-19T00:43:21;32.51;30.55;38.62;;
69620;Laerm;57654;51.434;5.984;2023-09-19T00:43:34;33.53;31.37;42.06;;
69620;Laerm;57654;51.434;5.984;2023-09-19T00:43:44;31.65;29.36;34.42;;
69620;Laerm;57654;51.434;5.984;2023-09-19T00:43:54;32.19;30.24;43.79;;
69620;Laerm;57654;51.434;5.984;2023-09-19T00:44:05;31.51;29.21;35.18;;
69620;Laerm;57654;51.434;5.984;2023-09-19T00:44:15;34.18;30.26;38.31;;
69620;Laerm;57654;51.434;5.984;2023-09-19T00:44:27;31.99;29.94;36.47;;
69620;Laerm;57654;51.434;5.984;2023-09-19T00:44:38;32.81;30.96;34.65;;
69620;Laerm;57654;51.434;5.984;2023-09-19T00:44:50;35.17;32.02;38.90;;
69620;Laerm;57654;51.434;5.984;2023-09-19T00:45:01;32.11;29.58;34.25;;
69620;Laerm;57654;51.434;5.984;2023-09-19T00:45:14;32.12;30.56;34.49;;
69620;Laerm;57654;51.434;5.984;2023-09-19T00:45:24;31.73;30.15;34.61;;
69620;Laerm;57654;51.434;5.984;2023-09-19T00:45:34;32.44;30.29;35.95;;
69620;Laerm;57654;51.434;5.984;2023-09-19T00:45:47;32.18;29.47;35.99;;
69620;Laerm;57654;51.434;5.984;2023-09-19T00:45:58;32.54;30.47;36.26;;
69620;Laerm;57654;51.434;5.984;2023-09-19T00:46:10;33.81;31.58;37.88;;
69620;Laerm;57654;51.434;5.984;2023-09-19T00:46:21;34.06;31.85;38.65;;
69620;Laerm;57654;51.434;5.984;2023-09-19T00:46:31;32.53;30.49;35.39;;
69620;Laerm;57654;51.434;5.984;2023-09-19T00:46:44;31.48;29.83;36.25;;
69620;Laerm;57654;51.434;5.984;2023-09-19T00:46:59;32.05;30.14;35.97;;
69620;Laerm;57654;51.434;5.984;2023-09-19T00:47:09;33.35;31.87;36.46;;
69620;Laerm;57654;51.434;5.984;2023-09-19T00:47:25;35.48;32.68;37.56;;
69620;Laerm;57654;51.434;5.984;2023-09-19T00:47:36;35.13;33.63;37.28;;
69620;Laerm;57654;51.434;5.984;2023-09-19T00:47:48;35.89;31.51;38.23;;
69620;Laerm;57654;51.434;5.984;2023-09-19T00:48:01;33.49;30.96;36.81;;
69620;Laerm;57654;51.434;5.984;2023-09-19T00:48:14;33.95;31.64;37.36;;
69620;Laerm;57654;51.434;5.984;2023-09-19T00:48:25;35.87;33.62;38.97;;
69620;Laerm;57654;51.434;5.984;2023-09-19T00:48:41;48.35;36.64;53.39;;
69620;Laerm;57654;51.434;5.984;2023-09-19T00:48:53;50.80;47.21;55.76;;
69620;Laerm;57654;51.434;5.984;2023-09-19T00:49:04;43.65;32.86;49.79;;
69620;Laerm;57654;51.434;5.984;2023-09-19T00:49:15;33.04;30.92;37.93;;
69620;Laerm;57654;51.434;5.984;2023-09-19T00:49:25;31.85;30.23;35.50;;
69620;Laerm;57654;51.434;5.984;2023-09-19T00:49:37;32.15;30.23;37.02;;
69620;Laerm;57654;51.434;5.984;2023-09-19T00:49:48;32.78;30.83;36.11;;
69620;Laerm;57654;51.434;5.984;2023-09-19T00:50:03;31.61;29.96;34.84;;
69620;Laerm;57654;51.434;5.984;2023-09-19T00:50:14;31.78;30.22;37.14;;
69620;Laerm;57654;51.434;5.984;2023-09-19T00:50:27;31.56;29.85;34.50;;
69620;Laerm;57654;51.434;5.984;2023-09-19T00:50:38;31.24;29.26;34.99;;
69620;Laerm;57654;51.434;5.984;2023-09-19T00:50:51;32.12;30.59;35.20;;
69620;Laerm;57654;51.434;5.984;2023-09-19T00:51:03;32.97;31.44;37.77;;
69620;Laerm;57654;51.434;5.984;2023-09-19T00:51:14;32.01;30.41;35.56;;
69620;Laerm;57654;51.434;5.984;2023-09-19T00:51:29;33.28;31.34;41.05;;
69620;Laerm;57654;51.434;5.984;2023-09-19T00:51:39;32.56;30.85;36.14;;
69620;Laerm;57654;51.434;5.984;2023-09-19T00:51:55;32.78;31.05;36.04;;
69620;Laerm;57654;51.434;5.984;2023-09-19T00:52:05;32.85;31.05;37.97;;
69620;Laerm;57654;51.434;5.984;2023-09-19T00:52:16;34.78;31.96;37.92;;
69620;Laerm;57654;51.434;5.984;2023-09-19T00:52:30;35.30;31.92;38.95;;
69620;Laerm;57654;51.434;5.984;2023-09-19T00:52:42;33.94;31.13;37.00;;
69620;Laerm;57654;51.434;5.984;2023-09-19T00:52:55;32.77;31.34;35.81;;
69620;Laerm;57654;51.434;5.984;2023-09-19T00:53:06;32.36;30.39;35.53;;
69620;Laerm;57654;51.434;5.984;2023-09-19T00:53:19;32.88;30.34;37.00;;
69620;Laerm;57654;51.434;5.984;2023-09-19T00:53:30;33.28;31.76;36.02;;
69620;Laerm;57654;51.434;5.984;2023-09-19T00:53:41;33.86;31.87;38.20;;
69620;Laerm;57654;51.434;5.984;2023-09-19T00:53:56;34.50;32.64;38.17;;
69620;Laerm;57654;51.434;5.984;2023-09-19T00:54:08;39.16;32.36;46.43;;
69620;Laerm;57654;51.434;5.984;2023-09-19T00:54:19;47.37;44.78;51.12;;
69620;Laerm;57654;51.434;5.984;2023-09-19T00:54:29;50.03;47.33;51.75;;
69620;Laerm;57654;51.434;5.984;2023-09-19T00:54:39;44.53;37.49;52.43;;
69620;Laerm;57654;51.434;5.984;2023-09-19T00:54:50;36.89;34.51;39.81;;
69620;Laerm;57654;51.434;5.984;2023-09-19T00:55:02;34.25;32.12;38.58;;
69620;Laerm;57654;51.434;5.984;2023-09-19T00:55:12;33.93;32.52;36.62;;
69620;Laerm;57654;51.434;5.984;2023-09-19T00:55:25;34.42;32.34;38.31;;
69620;Laerm;57654;51.434;5.984;2023-09-19T00:55:35;33.38;31.99;35.68;;
69620;Laerm;57654;51.434;5.984;2023-09-19T00:55:47;34.39;32.88;36.49;;
69620;Laerm;57654;51.434;5.984;2023-09-19T00:55:58;35.13;33.60;38.55;;
69620;Laerm;57654;51.434;5.984;2023-09-19T00:56:08;36.75;33.16;40.11;;
69620;Laerm;57654;51.434;5.984;2023-09-19T00:56:19;35.55;33.84;38.28;;
69620;Laerm;57654;51.434;5.984;2023-09-19T00:56:30;34.37;32.27;38.33;;
69620;Laerm;57654;51.434;5.984;2023-09-19T00:56:41;33.90;32.15;36.36;;
69620;Laerm;57654;51.434;5.984;2023-09-19T00:56:52;35.30;33.22;37.03;;
69620;Laerm;57654;51.434;5.984;2023-09-19T00:57:04;36.64;34.17;41.78;;
69620;Laerm;57654;51.434;5.984;2023-09-19T00:57:15;34.44;32.11;36.62;;
69620;Laerm;57654;51.434;5.984;2023-09-19T00:57:25;33.26;31.37;36.58;;
69620;Laerm;57654;51.434;5.984;2023-09-19T00:57:36;32.50;31.00;34.88;;
69620;Laerm;57654;51.434;5.984;2023-09-19T00:57:48;34.25;32.49;36.23;;
69620;Laerm;57654;51.434;5.984;2023-09-19T00:58:01;34.39;32.14;38.51;;
69620;Laerm;57654;51.434;5.984;2023-09-19T00:58:11;34.25;32.68;39.18;;
69620;Laerm;57654;51.434;5.984;2023-09-19T00:58:21;34.33;32.49;36.75;;
69620;Laerm;57654;51.434;5.984;2023-09-19T00:58:32;35.03;32.62;38.50;;
69620;Laerm;57654;51.434;5.984;2023-09-19T00:58:45;34.63;32.81;38.31;;
69620;Laerm;57654;51.434;5.984;2023-09-19T00:58:56;36.04;34.41;37.90;;
69620;Laerm;57654;51.434;5.984;2023-09-19T00:59:06;34.57;32.90;36.94;;
69620;Laerm;57654;51.434;5.984;2023-09-19T00:59:17;36.71;32.16;41.56;;
69620;Laerm;57654;51.434;5.984;2023-09-19T00:59:27;44.98;40.32;47.91;;
69620;Laerm;57654;51.434;5.984;2023-09-19T00:59:38;42.99;33.80;47.68;;
69620;Laerm;57654;51.434;5.984;2023-09-19T00:59:49;33.09;30.95;36.12;;
69620;Laerm;57654;51.434;5.984;2023-09-19T01:00:00;31.82;29.62;37.90;;
69620;Laerm;57654;51.434;5.984;2023-09-19T01:00:15;32.08;30.27;37.90;;
69620;Laerm;57654;51.434;5.984;2023-09-19T01:00:26;32.71;30.57;37.89;;
69620;Laerm;57654;51.434;5.984;2023-09-19T01:00:37;34.33;30.84;38.62;;
69620;Laerm;57654;51.434;5.984;2023-09-19T01:00:48;31.89;30.51;34.10;;
69620;Laerm;57654;51.434;5.984;2023-09-19T01:00:59;32.25;30.79;35.48;;
69620;Laerm;57654;51.434;5.984;2023-09-19T01:01:09;34.81;32.32;39.65;;
69620;Laerm;57654;51.434;5.984;2023-09-19T01:01:21;38.13;35.49;40.85;;
69620;Laerm;57654;51.434;5.984;2023-09-19T01:01:32;39.02;35.89;42.29;;
69620;Laerm;57654;51.434;5.984;2023-09-19T01:01:42;39.31;35.60;42.40;;
69620;Laerm;57654;51.434;5.984;2023-09-19T01:01:56;35.76;33.97;40.62;;
69620;Laerm;57654;51.434;5.984;2023-09-19T01:02:06;35.44;33.49;38.92;;
69620;Laerm;57654;51.434;5.984;2023-09-19T01:02:16;37.13;33.46;40.84;;
69620;Laerm;57654;51.434;5.984;2023-09-19T01:02:26;36.86;33.08;40.58;;
69620;Laerm;57654;51.434;5.984;2023-09-19T01:02:38;34.35;32.62;36.89;;
69620;Laerm;57654;51.434;5.984;2023-09-19T01:02:48;34.70;32.49;36.80;;
69620;Laerm;57654;51.434;5.984;2023-09-19T01:02:58;36.34;33.48;39.08;;
69620;Laerm;57654;51.434;5.984;2023-09-19T01:03:09;34.43;32.50;37.79;;
69620;Laerm;57654;51.434;5.984;2023-09-19T01:03:20;35.27;31.73;38.92;;
69620;Laerm;57654;51.434;5.984;2023-09-19T01:03:30;34.41;31.73;37.44;;
69620;Laerm;57654;51.434;5.984;2023-09-19T01:03:41;35.29;33.41;37.70;;